createdAt,value
2018-05-17T00:01:29.923Z,3.07
2018-05-17T00:03:57.550Z,2.40
2018-05-17T00:06:25.133Z,1.80
2018-05-17T00:08:52.774Z,2.53
2018-05-17T00:11:20.392Z,2.83
2018-05-17T00:13:47.981Z,2.20
2018-05-17T00:16:15.560Z,2.23
2018-05-17T00:18:43.175Z,2.87
2018-05-17T00:21:10.760Z,2.40
2018-05-17T00:23:38.349Z,2.43
2018-05-17T00:26:05.973Z,3.40
2018-05-17T00:28:33.563Z,2.67
2018-05-17T00:31:01.142Z,3.20
2018-05-17T00:33:28.744Z,3.20
2018-05-17T00:35:56.344Z,2.80
2018-05-17T00:38:24.595Z,3.60
2018-05-17T00:40:52.205Z,2.90
2018-05-17T00:43:19.897Z,2.70
2018-05-17T00:45:47.493Z,3.20
2018-05-17T00:48:16.876Z,2.60
2018-05-17T00:50:44.450Z,2.67
2018-05-17T00:53:23.655Z,3.53
2018-05-17T00:55:51.509Z,2.97
2018-05-17T00:58:19.955Z,4.43
2018-05-17T01:00:47.569Z,2.70
2018-05-17T01:03:15.161Z,3.53
2018-05-17T01:05:42.749Z,2.80
2018-05-17T01:08:11.359Z,2.43
2018-05-17T01:10:38.978Z,2.77
2018-05-17T01:13:06.573Z,2.70
2018-05-17T01:15:34.212Z,2.20
2018-05-17T01:18:01.803Z,3.03
2018-05-17T01:20:29.378Z,2.80
2018-05-17T01:22:57.055Z,3.47
2018-05-17T01:25:24.640Z,2.33
2018-05-17T01:27:52.234Z,3.60
2018-05-17T01:30:19.855Z,3.00
2018-05-17T01:32:47.438Z,2.47
2018-05-17T01:35:15.020Z,3.17
2018-05-17T01:37:54.400Z,2.30
2018-05-17T01:40:22.024Z,3.37
2018-05-17T01:42:49.763Z,3.40
2018-05-17T01:45:17.370Z,2.67
2018-05-17T01:47:44.952Z,2.80
2018-05-17T01:50:13.283Z,3.20
2018-05-17T01:52:40.878Z,2.60
2018-05-17T01:55:08.493Z,2.67
2018-05-17T01:57:36.872Z,2.63
2018-05-17T02:00:04.593Z,2.53
2018-05-17T02:02:32.178Z,4.97
2018-05-17T02:04:59.768Z,2.50
2018-05-17T02:07:27.404Z,3.30
2018-05-17T02:09:54.984Z,2.80
2018-05-17T02:12:22.570Z,2.63
2018-05-17T02:14:50.197Z,2.70
2018-05-17T02:17:17.770Z,2.53
2018-05-17T02:19:45.350Z,3.03
2018-05-17T02:22:12.965Z,3.00
2018-05-17T02:24:40.573Z,2.47
2018-05-17T02:27:08.155Z,3.00
2018-05-17T02:29:35.781Z,2.30
2018-05-17T02:32:03.367Z,2.77
2018-05-17T02:37:03.735Z,2.80
2018-05-17T02:39:31.324Z,3.00
2018-05-17T02:41:58.909Z,2.90
2018-05-17T02:44:26.538Z,2.90
2018-05-17T02:46:54.128Z,3.40
2018-05-17T02:49:21.711Z,2.90
2018-05-17T02:51:49.330Z,4.20
2018-05-17T02:54:16.916Z,2.37
2018-05-17T02:56:44.507Z,3.30
2018-05-17T02:59:12.136Z,3.13
2018-05-17T03:01:39.725Z,3.27
2018-05-17T03:04:07.309Z,2.67
2018-05-17T03:06:34.941Z,3.10
2018-05-17T03:09:02.522Z,2.73
2018-05-17T03:11:30.108Z,2.80
2018-05-17T03:13:57.720Z,3.30
2018-05-17T03:16:25.322Z,3.67
2018-05-17T03:18:52.891Z,2.30
2018-05-17T03:21:20.511Z,7.70
2018-05-17T03:23:48.088Z,4.03
2018-05-17T03:26:15.673Z,2.40
2018-05-17T03:28:43.307Z,3.20
2018-05-17T03:31:10.884Z,3.47
2018-05-17T03:33:38.461Z,2.80
2018-05-17T03:36:06.071Z,3.60
2018-05-17T03:38:33.638Z,1.87
2018-05-17T03:41:01.201Z,2.83
2018-05-17T03:43:28.805Z,2.80
2018-05-17T03:45:56.387Z,2.63
2018-05-17T03:48:24.007Z,2.60
2018-05-17T03:50:51.620Z,3.20
2018-05-17T03:53:19.206Z,3.00
2018-05-17T03:55:46.780Z,2.97
2018-05-17T03:58:14.387Z,2.53
2018-05-17T04:00:53.613Z,3.50
2018-05-17T04:03:32.861Z,2.67
2018-05-17T04:06:12.151Z,2.80
2018-05-17T04:08:39.797Z,3.13
2018-05-17T04:11:07.367Z,3.13
2018-05-17T04:13:34.959Z,3.20
2018-05-17T04:16:02.581Z,3.00
2018-05-17T04:18:30.153Z,2.97
2018-05-17T04:20:57.737Z,3.07
2018-05-17T04:23:25.351Z,2.67
2018-05-17T04:25:52.938Z,3.30
2018-05-17T04:28:20.522Z,2.57
2018-05-17T04:30:48.150Z,1.97
2018-05-17T04:33:15.766Z,3.07
2018-05-17T04:35:43.348Z,2.90
2018-05-17T04:38:10.967Z,3.20
2018-05-17T04:40:38.543Z,1.90
2018-05-17T04:43:06.140Z,2.80
2018-05-17T04:45:33.754Z,2.67
2018-05-17T04:48:01.364Z,2.33
2018-05-17T04:50:28.952Z,5.63
2018-05-17T04:52:56.566Z,3.90
2018-05-17T04:55:24.137Z,3.00
2018-05-17T04:57:51.724Z,1.97
2018-05-17T05:00:19.330Z,1.93
2018-05-17T05:02:46.973Z,2.40
2018-05-17T05:05:14.535Z,2.07
2018-05-17T05:07:42.271Z,2.47
2018-05-17T05:10:09.857Z,3.73
2018-05-17T05:12:37.432Z,3.43
2018-05-17T05:15:05.166Z,2.10
2018-05-17T05:17:32.760Z,1.77
2018-05-17T05:20:00.337Z,2.20
2018-05-17T05:22:27.956Z,2.00
2018-05-17T05:24:55.536Z,2.43
2018-05-17T05:27:23.128Z,2.17
2018-05-17T05:29:50.743Z,1.60
2018-05-17T05:32:18.325Z,1.50
2018-05-17T05:34:45.900Z,2.03
2018-05-17T05:37:13.523Z,1.70
2018-05-17T05:39:41.103Z,1.53
2018-05-17T05:42:08.670Z,1.50
2018-05-17T05:44:36.283Z,1.60
2018-05-17T05:47:03.900Z,1.77
2018-05-17T05:49:31.544Z,2.40
2018-05-17T05:51:59.200Z,1.50
2018-05-17T05:54:26.820Z,2.20
2018-05-17T05:56:54.426Z,2.27
2018-05-17T05:59:22.086Z,1.83
2018-05-17T06:01:49.695Z,2.03
2018-05-17T06:04:17.277Z,2.00
2018-05-17T06:06:44.936Z,1.97
2018-05-17T06:09:12.523Z,3.20
2018-05-17T06:11:40.123Z,1.70
2018-05-17T06:14:07.735Z,1.83
2018-05-17T06:16:35.326Z,1.87
2018-05-17T06:19:02.912Z,1.10
2018-05-17T06:21:30.523Z,1.90
2018-05-17T06:23:58.110Z,1.53
2018-05-17T06:26:25.695Z,1.23
2018-05-17T06:28:53.316Z,1.40
2018-05-17T06:31:20.898Z,1.90
2018-05-17T06:33:48.506Z,2.33
2018-05-17T06:36:16.140Z,2.27
2018-05-17T06:38:43.717Z,2.03
2018-05-17T06:41:11.304Z,1.70
2018-05-17T06:43:38.934Z,2.10
2018-05-17T06:46:06.516Z,1.83
2018-05-17T06:48:34.088Z,2.73
2018-05-17T06:51:01.700Z,3.40
2018-05-17T06:53:29.284Z,2.17
2018-05-17T06:55:56.866Z,2.20
2018-05-17T06:58:24.511Z,1.67
2018-05-17T07:00:52.096Z,2.00
2018-05-17T07:03:19.694Z,1.77
2018-05-17T07:05:47.396Z,1.97
2018-05-17T07:08:14.989Z,2.13
2018-05-17T07:10:42.573Z,1.80
2018-05-17T07:13:10.180Z,1.73
2018-05-17T07:15:37.774Z,2.27
2018-05-17T07:18:05.508Z,2.23
2018-05-17T07:20:33.015Z,1.83
2018-05-17T07:23:00.599Z,1.80
2018-05-17T07:25:28.181Z,3.00
2018-05-17T07:27:55.814Z,2.47
2018-05-17T07:30:23.403Z,1.33
2018-05-17T07:32:50.981Z,1.70
2018-05-17T07:35:18.600Z,1.90
2018-05-17T07:37:46.204Z,1.93
2018-05-17T07:40:13.795Z,2.90
2018-05-17T07:42:41.413Z,1.77
2018-05-17T07:45:08.983Z,1.17
2018-05-17T07:47:36.563Z,1.20
2018-05-17T07:50:04.219Z,1.70
2018-05-17T07:52:31.789Z,1.47
2018-05-17T07:54:59.359Z,1.90
2018-05-17T07:57:27.077Z,1.60
2018-05-17T07:59:54.658Z,2.93
2018-05-17T08:02:22.234Z,1.83
2018-05-17T08:04:49.871Z,1.60
2018-05-17T08:07:17.505Z,1.30
2018-05-17T08:09:45.085Z,1.77
2018-05-17T08:12:12.704Z,1.27
2018-05-17T08:14:40.291Z,1.63
2018-05-17T08:17:07.866Z,1.30
2018-05-17T08:19:35.475Z,1.30
2018-05-17T08:22:03.216Z,1.50
2018-05-17T08:24:30.848Z,1.23
2018-05-17T08:26:58.473Z,1.20
2018-05-17T08:29:26.105Z,1.73
2018-05-17T08:31:53.691Z,2.40
2018-05-17T08:34:21.392Z,3.07
2018-05-17T08:36:49.081Z,2.40
2018-05-17T08:39:16.599Z,1.47
2018-05-17T08:41:44.228Z,1.20
2018-05-17T08:44:11.822Z,1.93
2018-05-17T08:46:39.415Z,2.17
2018-05-17T08:49:07.049Z,1.47
2018-05-17T08:51:34.645Z,2.00
2018-05-17T08:54:02.257Z,1.30
2018-05-17T08:56:29.907Z,1.27
2018-05-17T08:58:57.505Z,2.10
2018-05-17T09:01:25.098Z,1.63
2018-05-17T09:03:52.757Z,1.60
2018-05-17T09:06:20.345Z,2.30
2018-05-17T09:08:47.947Z,1.73
2018-05-17T09:11:15.573Z,2.10
2018-05-17T09:13:43.444Z,1.97
2018-05-17T09:16:11.006Z,2.30
2018-05-17T09:18:38.632Z,1.93
2018-05-17T09:21:06.222Z,1.50
2018-05-17T09:23:33.816Z,1.45
2018-05-17T09:26:01.436Z,2.00
2018-05-17T09:28:29.023Z,1.90
2018-05-17T09:30:56.608Z,2.20
2018-05-17T09:33:24.227Z,2.40
2018-05-17T09:35:51.819Z,2.10
2018-05-17T09:38:19.414Z,1.77
2018-05-17T09:40:47.015Z,1.83
2018-05-17T09:43:14.610Z,1.63
2018-05-17T09:45:42.368Z,1.70
2018-05-17T09:48:09.989Z,1.87
2018-05-17T09:50:37.591Z,1.70
2018-05-17T09:53:05.181Z,1.93
2018-05-17T09:55:32.813Z,2.00
2018-05-17T09:58:00.398Z,2.83
2018-05-17T10:00:28.024Z,1.63
2018-05-17T10:02:55.631Z,2.00
2018-05-17T10:05:23.210Z,1.80
2018-05-17T10:07:50.780Z,2.00
2018-05-17T10:10:18.402Z,1.60
2018-05-17T10:12:45.987Z,2.13
2018-05-17T10:15:13.577Z,1.50
2018-05-17T10:17:41.194Z,1.23
2018-05-17T10:20:08.982Z,1.80
2018-05-17T10:22:36.564Z,1.83
2018-05-17T10:25:04.214Z,1.83
2018-05-17T10:27:31.790Z,2.23
2018-05-17T10:29:59.359Z,2.00
2018-05-17T10:32:26.963Z,2.90
2018-05-17T10:34:54.518Z,2.23
2018-05-17T10:37:22.089Z,2.80
2018-05-17T10:39:49.708Z,2.43
2018-05-17T10:42:17.365Z,2.63
2018-05-17T10:44:44.895Z,2.43
2018-05-17T10:47:12.501Z,2.33
2018-05-17T10:49:40.053Z,3.90
2018-05-17T10:52:07.608Z,2.67
2018-05-17T10:54:35.252Z,2.10
2018-05-17T10:57:02.816Z,2.13
2018-05-17T10:59:30.377Z,2.70
2018-05-17T11:01:57.967Z,1.90
2018-05-17T11:04:25.532Z,4.73
2018-05-17T11:06:53.098Z,2.47
2018-05-17T11:09:20.703Z,2.53
2018-05-17T11:11:48.268Z,2.67
2018-05-17T11:14:15.852Z,3.40
2018-05-17T11:16:43.459Z,2.60
2018-05-17T11:19:11.020Z,2.67
2018-05-17T11:21:38.594Z,3.20
2018-05-17T11:24:06.223Z,2.90
2018-05-17T11:26:33.785Z,3.23
2018-05-17T11:29:01.363Z,2.77
2018-05-17T11:31:28.977Z,2.10
2018-05-17T11:33:56.555Z,3.23
2018-05-17T11:36:24.109Z,2.20
2018-05-17T11:38:51.694Z,2.30
2018-05-17T11:41:19.310Z,2.37
2018-05-17T11:43:46.876Z,2.50
2018-05-17T11:46:14.475Z,2.10
2018-05-17T11:48:42.050Z,4.57
2018-05-17T11:51:09.637Z,2.90
2018-05-17T11:53:37.249Z,2.33
2018-05-17T11:56:04.826Z,2.00
2018-05-17T11:58:32.401Z,3.20
2018-05-17T12:01:00.000Z,3.07
2018-05-17T12:03:27.558Z,2.50
2018-05-17T12:05:55.120Z,2.60
2018-05-17T12:08:22.724Z,2.47
2018-05-17T12:10:50.292Z,2.00
2018-05-17T12:13:17.988Z,1.90
2018-05-17T12:15:45.621Z,2.57
2018-05-17T12:18:13.184Z,3.80
2018-05-17T12:20:40.766Z,2.40
2018-05-17T12:23:08.415Z,3.20
2018-05-17T12:25:36.028Z,2.20
2018-05-17T12:28:03.600Z,2.73
2018-05-17T12:30:31.303Z,3.87
2018-05-17T12:32:58.848Z,3.17
2018-05-17T12:35:26.421Z,2.87
2018-05-17T12:37:54.015Z,2.97
2018-05-17T12:40:21.602Z,2.17
2018-05-17T12:42:49.302Z,5.97
2018-05-17T12:45:16.880Z,2.47
2018-05-17T12:47:44.440Z,3.60
2018-05-17T12:50:12.015Z,3.00
2018-05-17T12:52:39.612Z,2.70
2018-05-17T12:55:07.191Z,3.20
2018-05-17T12:57:34.764Z,2.50
2018-05-17T13:00:02.368Z,2.77
2018-05-17T13:02:30.575Z,2.70
2018-05-17T13:04:58.207Z,3.87
2018-05-17T13:07:25.799Z,3.07
2018-05-17T13:09:53.392Z,3.37
2018-05-17T13:12:20.966Z,2.90
2018-05-17T13:14:48.567Z,2.70
2018-05-17T13:17:16.123Z,3.40
2018-05-17T13:19:43.693Z,2.80
2018-05-17T13:22:11.322Z,4.10
2018-05-17T13:24:38.923Z,3.00
2018-05-17T13:27:06.509Z,2.90
2018-05-17T13:29:34.294Z,2.70
2018-05-17T13:32:01.878Z,3.37
2018-05-17T13:34:29.475Z,3.83
2018-05-17T13:36:57.139Z,3.33
2018-05-17T13:39:24.724Z,4.17
2018-05-17T13:41:52.292Z,3.23
2018-05-17T13:44:19.908Z,2.83
2018-05-17T13:46:47.486Z,3.63
2018-05-17T13:49:15.081Z,3.90
2018-05-17T13:51:42.692Z,3.50
2018-05-17T13:54:10.326Z,3.57
2018-05-17T13:56:37.888Z,2.30
2018-05-17T13:59:06.286Z,4.43
2018-05-17T14:01:34.115Z,3.30
2018-05-17T14:04:01.701Z,3.20
2018-05-17T14:06:29.311Z,3.80
2018-05-17T14:08:56.883Z,4.27
2018-05-17T14:11:24.462Z,2.73
2018-05-17T14:13:52.114Z,2.93
2018-05-17T14:16:19.671Z,3.30
2018-05-17T14:18:47.244Z,3.00
2018-05-17T14:21:14.866Z,2.90
2018-05-17T14:23:42.446Z,3.60
2018-05-17T14:26:10.025Z,5.87
2018-05-17T14:28:37.621Z,3.07
2018-05-17T14:31:05.197Z,4.10
2018-05-17T14:33:32.769Z,2.80
2018-05-17T14:36:00.376Z,2.83
2018-05-17T14:38:27.948Z,3.23
2018-05-17T14:40:55.526Z,5.07
2018-05-17T14:43:23.120Z,2.77
2018-05-17T14:45:50.697Z,2.80
2018-05-17T14:48:18.291Z,3.03
2018-05-17T14:50:45.896Z,3.20
2018-05-17T14:53:13.509Z,3.40
2018-05-17T14:55:41.078Z,2.80
2018-05-17T14:58:08.667Z,4.00
2018-05-17T15:00:36.276Z,3.30
2018-05-17T15:03:03.853Z,3.43
2018-05-17T15:05:31.567Z,3.30
2018-05-17T15:07:59.172Z,3.23
2018-05-17T15:10:26.727Z,3.83
2018-05-17T15:12:54.539Z,3.90
2018-05-17T15:15:22.156Z,4.20
2018-05-17T15:17:49.733Z,3.67
2018-05-17T15:20:17.312Z,3.73
2018-05-17T15:22:44.938Z,4.50
2018-05-17T15:25:13.350Z,5.93
2018-05-17T15:27:40.927Z,6.03
2018-05-17T15:30:08.564Z,5.10
2018-05-17T15:32:36.129Z,7.40
2018-05-17T15:35:03.689Z,7.27
2018-05-17T15:37:31.313Z,4.97
2018-05-17T15:39:58.890Z,3.60
2018-05-17T15:42:26.467Z,7.30
2018-05-17T15:44:54.055Z,7.20
2018-05-17T15:47:21.642Z,4.50
2018-05-17T15:49:49.204Z,5.40
2018-05-17T15:52:17.179Z,3.90
2018-05-17T15:54:44.760Z,4.37
2018-05-17T15:57:12.447Z,4.97
2018-05-17T15:59:40.063Z,3.93
2018-05-17T16:02:07.628Z,4.10
2018-05-17T16:04:35.200Z,4.80
2018-05-17T16:07:02.805Z,4.77
2018-05-17T16:09:30.412Z,6.90
2018-05-17T16:11:57.987Z,8.33
2018-05-17T16:14:25.597Z,6.00
2018-05-17T16:16:53.170Z,4.20
2018-05-17T16:19:20.731Z,4.17
2018-05-17T16:21:48.364Z,5.10
2018-05-17T16:24:15.979Z,5.13
2018-05-17T16:26:43.569Z,5.47
2018-05-17T16:29:11.245Z,4.70
2018-05-17T16:31:38.837Z,6.43
2018-05-17T16:34:06.471Z,9.20
2018-05-17T16:36:34.084Z,5.47
2018-05-17T16:39:01.698Z,6.57
2018-05-17T16:41:29.373Z,5.17
2018-05-17T16:43:57.053Z,5.30
2018-05-17T16:46:24.623Z,4.80
2018-05-17T16:48:53.267Z,5.83
2018-05-17T16:51:20.868Z,5.33
2018-05-17T16:53:48.446Z,6.13
2018-05-17T16:56:16.055Z,6.67
2018-05-17T16:58:43.718Z,5.00
2018-05-17T17:01:11.336Z,11.60
2018-05-17T17:03:38.908Z,5.60
2018-05-17T17:06:06.560Z,7.03
2018-05-17T17:08:34.127Z,7.37
2018-05-17T17:11:01.692Z,7.47
2018-05-17T17:13:29.363Z,6.23
2018-05-17T17:15:57.024Z,6.73
2018-05-17T17:18:24.606Z,7.93
2018-05-17T17:20:52.295Z,8.27
2018-05-17T17:23:19.823Z,7.63
2018-05-17T17:25:47.410Z,8.40
2018-05-17T17:28:15.082Z,10.07
2018-05-17T17:30:42.693Z,7.97
2018-05-17T17:33:10.281Z,10.37
2018-05-17T17:35:37.878Z,9.50
2018-05-17T17:38:05.436Z,9.20
2018-05-17T17:40:38.531Z,11.20
2018-05-17T17:43:06.121Z,9.80
2018-05-17T17:45:33.727Z,10.83
2018-05-17T17:48:01.356Z,10.77
2018-05-17T17:50:28.923Z,11.50
2018-05-17T17:52:56.495Z,11.00
2018-05-17T17:55:24.106Z,11.33
2018-05-17T17:57:51.676Z,12.70
2018-05-17T18:00:19.252Z,10.93
2018-05-17T18:02:46.864Z,13.40
2018-05-17T18:05:14.549Z,12.07
2018-05-17T18:07:42.119Z,13.67
2018-05-17T18:10:09.755Z,11.20
2018-05-17T18:12:37.338Z,11.50
2018-05-17T18:15:04.935Z,11.43
2018-05-17T18:17:33.464Z,11.47
2018-05-17T18:20:01.024Z,10.47
2018-05-17T18:22:28.612Z,10.83
2018-05-17T18:24:56.259Z,12.10
2018-05-17T18:27:23.806Z,10.93
2018-05-17T18:29:51.395Z,10.90
2018-05-17T18:32:19.023Z,11.20
2018-05-17T18:34:46.596Z,10.43
2018-05-17T18:37:14.183Z,15.53
2018-05-17T18:39:41.856Z,10.80
2018-05-17T18:42:09.433Z,10.93
2018-05-17T18:44:37.024Z,10.03
2018-05-17T18:47:04.664Z,10.80
2018-05-17T18:49:32.246Z,11.10
2018-05-17T18:51:59.840Z,12.03
2018-05-17T18:54:27.594Z,10.57
2018-05-17T18:56:55.187Z,11.37
2018-05-17T18:59:22.793Z,12.27
2018-05-17T19:01:50.489Z,12.73
2018-05-17T19:04:18.031Z,10.90
2018-05-17T19:06:45.616Z,11.77
2018-05-17T19:09:13.220Z,11.70
2018-05-17T19:11:40.815Z,11.73
2018-05-17T19:14:08.537Z,14.73
2018-05-17T19:16:36.128Z,12.90
2018-05-17T19:19:03.711Z,13.37
2018-05-17T19:21:31.295Z,13.60
2018-05-17T19:23:58.929Z,14.37
2018-05-17T19:26:26.518Z,12.27
2018-05-17T19:28:54.110Z,15.43
2018-05-17T19:31:21.864Z,14.07
2018-05-17T19:33:49.461Z,14.80
2018-05-17T19:36:17.075Z,12.83
2018-05-17T19:38:44.696Z,15.33
2018-05-17T19:41:12.281Z,14.90
2018-05-17T19:43:39.856Z,15.57
2018-05-17T19:46:07.454Z,14.97
2018-05-17T19:48:35.038Z,11.70
2018-05-17T19:51:02.646Z,18.40
2018-05-17T19:53:30.353Z,14.70
2018-05-17T19:55:57.951Z,14.10
2018-05-17T19:58:25.527Z,14.40
2018-05-17T20:00:53.249Z,13.47
2018-05-17T20:03:20.828Z,12.83
2018-05-17T20:05:48.420Z,14.60
2018-05-17T20:08:16.040Z,12.57
2018-05-17T20:10:43.648Z,13.80
2018-05-17T20:13:11.227Z,15.27
2018-05-17T20:15:38.878Z,14.73
2018-05-17T20:18:06.460Z,12.97
2018-05-17T20:20:34.042Z,13.77
2018-05-17T20:23:01.663Z,14.40
2018-05-17T20:25:29.235Z,14.30
2018-05-17T20:27:56.816Z,13.97
2018-05-17T20:30:24.452Z,14.63
2018-05-17T20:32:52.032Z,13.17
2018-05-17T20:35:19.833Z,15.43
2018-05-17T20:37:47.487Z,15.63
2018-05-17T20:40:15.069Z,16.67
2018-05-17T20:42:42.649Z,13.27
2018-05-17T20:45:10.260Z,14.00
2018-05-17T20:47:37.847Z,13.67
2018-05-17T20:50:05.445Z,13.37
2018-05-17T20:52:33.054Z,13.60
2018-05-17T20:55:00.656Z,14.47
2018-05-17T20:57:28.246Z,14.83
2018-05-17T20:59:55.876Z,16.00
2018-05-17T21:02:23.454Z,15.17
2018-05-17T21:04:51.061Z,15.70
2018-05-17T21:07:18.769Z,16.80
2018-05-17T21:09:46.360Z,15.10
2018-05-17T21:12:13.948Z,15.57
2018-05-17T21:14:41.576Z,14.93
2018-05-17T21:17:09.178Z,16.10
2018-05-17T21:19:36.768Z,15.07
2018-05-17T21:22:04.382Z,18.33
2018-05-17T21:24:31.981Z,20.00
2018-05-17T21:26:59.566Z,17.80
2018-05-17T21:29:27.200Z,16.47
2018-05-17T21:31:54.792Z,19.93
2018-05-17T21:34:22.392Z,16.77
2018-05-17T21:36:50.024Z,20.53
2018-05-17T21:39:17.614Z,16.87
2018-05-17T21:41:45.209Z,16.73
2018-05-17T21:44:12.854Z,16.47
2018-05-17T21:46:40.451Z,15.40
2018-05-17T21:49:08.051Z,18.90
2018-05-17T21:51:35.732Z,18.27
2018-05-17T21:54:03.347Z,16.73
2018-05-17T21:56:30.936Z,17.37
2018-05-17T21:58:58.563Z,16.43
2018-05-17T22:01:26.231Z,17.10
2018-05-17T22:03:53.829Z,16.13
2018-05-17T22:06:21.448Z,16.00
2018-05-17T22:08:49.031Z,15.10
2018-05-17T22:11:16.756Z,14.57
2018-05-17T22:13:44.375Z,16.20
2018-05-17T22:16:11.975Z,16.00
2018-05-17T22:18:39.552Z,16.90
2018-05-17T22:21:07.194Z,15.50
2018-05-17T22:23:34.789Z,14.27
2018-05-17T22:26:02.378Z,16.50
2018-05-17T22:28:30.015Z,14.63
2018-05-17T22:30:57.602Z,16.03
2018-05-17T22:33:25.185Z,13.90
2018-05-17T22:35:52.959Z,14.27
2018-05-17T22:38:20.495Z,14.13
2018-05-17T22:40:48.075Z,15.67
2018-05-17T22:43:15.780Z,15.00
2018-05-17T22:45:43.378Z,15.53
2018-05-17T22:48:11.001Z,15.30
2018-05-17T22:50:38.631Z,16.30
2018-05-17T22:53:06.210Z,15.03
2018-05-17T22:55:33.799Z,13.77
2018-05-17T22:58:13.172Z,15.43
2018-05-17T23:00:40.754Z,12.70
2018-05-17T23:03:08.349Z,16.20
2018-05-17T23:05:35.996Z,14.90
2018-05-17T23:08:03.585Z,14.13
2018-05-17T23:10:31.180Z,12.57
2018-05-17T23:12:58.806Z,14.60
2018-05-17T23:15:26.389Z,16.20
2018-05-17T23:17:53.981Z,15.33
2018-05-17T23:20:21.644Z,15.90
2018-05-17T23:22:49.222Z,15.50
2018-05-17T23:25:16.861Z,17.37
2018-05-17T23:27:44.523Z,17.10
2018-05-17T23:30:12.115Z,16.50
2018-05-17T23:32:39.707Z,18.60
2018-05-17T23:35:07.601Z,27.90
2018-05-17T23:37:35.194Z,19.23
2018-05-17T23:40:14.700Z,20.97
2018-05-17T23:42:42.297Z,28.97
2018-05-17T23:45:09.886Z,18.70
2018-05-17T23:47:37.524Z,16.70
2018-05-17T23:50:05.111Z,16.17
2018-05-17T23:52:32.702Z,21.03
2018-05-17T23:55:00.341Z,17.37
2018-05-17T23:57:27.942Z,12.27
2018-05-17T23:59:55.573Z,13.23
